sensor_id;sensor_type;location;lat;lon;timestamp;P1;durP1;ratioP1;P2;durP2;ratioP2
21297;SDS011;10808;48.010;11.326;2022-08-21T00:02:21;2.28;;;1.35;;
21297;SDS011;10808;48.010;11.326;2022-08-21T00:04:50;1.70;;;1.30;;
21297;SDS011;10808;48.010;11.326;2022-08-21T00:07:17;1.30;;;1.10;;
21297;SDS011;10808;48.010;11.326;2022-08-21T00:09:43;1.48;;;1.20;;
21297;SDS011;10808;48.010;11.326;2022-08-21T00:12:12;1.80;;;1.30;;
21297;SDS011;10808;48.010;11.326;2022-08-21T00:14:39;1.85;;;1.20;;
21297;SDS011;10808;48.010;11.326;2022-08-21T00:17:06;1.20;;;1.10;;
21297;SDS011;10808;48.010;11.326;2022-08-21T00:19:33;1.42;;;1.33;;
21297;SDS011;10808;48.010;11.326;2022-08-21T00:21:59;1.27;;;1.10;;
21297;SDS011;10808;48.010;11.326;2022-08-21T00:24:26;1.33;;;1.23;;
21297;SDS011;10808;48.010;11.326;2022-08-21T00:26:52;1.30;;;1.20;;
21297;SDS011;10808;48.010;11.326;2022-08-21T00:29:19;2.75;;;1.20;;
21297;SDS011;10808;48.010;11.326;2022-08-21T00:31:45;1.85;;;1.33;;
21297;SDS011;10808;48.010;11.326;2022-08-21T00:34:12;2.10;;;1.30;;
21297;SDS011;10808;48.010;11.326;2022-08-21T00:36:39;1.40;;;1.30;;
21297;SDS011;10808;48.010;11.326;2022-08-21T00:39:05;2.70;;;1.30;;
21297;SDS011;10808;48.010;11.326;2022-08-21T00:41:33;1.80;;;1.40;;
21297;SDS011;10808;48.010;11.326;2022-08-21T00:44:01;1.67;;;1.27;;
21297;SDS011;10808;48.010;11.326;2022-08-21T00:46:29;1.50;;;1.40;;
21297;SDS011;10808;48.010;11.326;2022-08-21T00:48:56;1.50;;;1.30;;
21297;SDS011;10808;48.010;11.326;2022-08-21T00:51:24;1.30;;;1.20;;
21297;SDS011;10808;48.010;11.326;2022-08-21T00:53:55;2.17;;;1.45;;
21297;SDS011;10808;48.010;11.326;2022-08-21T00:56:25;2.20;;;1.38;;
21297;SDS011;10808;48.010;11.326;2022-08-21T00:58:51;1.45;;;1.35;;
21297;SDS011;10808;48.010;11.326;2022-08-21T01:01:19;1.50;;;1.40;;
21297;SDS011;10808;48.010;11.326;2022-08-21T01:03:45;1.40;;;1.30;;
21297;SDS011;10808;48.010;11.326;2022-08-21T01:06:12;2.10;;;1.30;;
21297;SDS011;10808;48.010;11.326;2022-08-21T01:08:38;1.53;;;1.40;;
21297;SDS011;10808;48.010;11.326;2022-08-21T01:11:05;1.80;;;1.30;;
21297;SDS011;10808;48.010;11.326;2022-08-21T01:13:32;1.80;;;1.30;;
21297;SDS011;10808;48.010;11.326;2022-08-21T01:16:02;1.52;;;1.42;;
21297;SDS011;10808;48.010;11.326;2022-08-21T01:18:30;1.63;;;1.52;;
21297;SDS011;10808;48.010;11.326;2022-08-21T01:23:29;1.30;;;1.20;;
21297;SDS011;10808;48.010;11.326;2022-08-21T01:25:56;1.50;;;1.40;;
21297;SDS011;10808;48.010;11.326;2022-08-21T01:28:22;2.88;;;1.33;;
21297;SDS011;10808;48.010;11.326;2022-08-21T01:30:50;1.90;;;1.20;;
21297;SDS011;10808;48.010;11.326;2022-08-21T01:33:19;1.48;;;1.20;;
21297;SDS011;10808;48.010;11.326;2022-08-21T01:35:47;2.08;;;1.40;;
21297;SDS011;10808;48.010;11.326;2022-08-21T01:38:13;1.63;;;1.30;;
21297;SDS011;10808;48.010;11.326;2022-08-21T01:40:39;1.58;;;1.48;;
21297;SDS011;10808;48.010;11.326;2022-08-21T01:43:05;1.70;;;1.33;;
21297;SDS011;10808;48.010;11.326;2022-08-21T01:45:31;1.30;;;1.20;;
21297;SDS011;10808;48.010;11.326;2022-08-21T01:47:57;1.45;;;1.35;;
21297;SDS011;10808;48.010;11.326;2022-08-21T01:50:24;1.50;;;1.40;;
21297;SDS011;10808;48.010;11.326;2022-08-21T01:52:50;1.88;;;1.20;;
21297;SDS011;10808;48.010;11.326;2022-08-21T01:55:17;1.50;;;1.40;;
21297;SDS011;10808;48.010;11.326;2022-08-21T01:57:44;1.48;;;1.38;;
21297;SDS011;10808;48.010;11.326;2022-08-21T02:00:11;3.33;;;1.80;;
21297;SDS011;10808;48.010;11.326;2022-08-21T02:02:41;2.33;;;1.50;;
21297;SDS011;10808;48.010;11.326;2022-08-21T02:05:08;1.63;;;1.45;;
21297;SDS011;10808;48.010;11.326;2022-08-21T02:07:36;2.00;;;1.40;;
21297;SDS011;10808;48.010;11.326;2022-08-21T02:10:06;1.70;;;1.60;;
21297;SDS011;10808;48.010;11.326;2022-08-21T02:12:33;1.95;;;1.40;;
21297;SDS011;10808;48.010;11.326;2022-08-21T02:14:59;1.60;;;1.50;;
21297;SDS011;10808;48.010;11.326;2022-08-21T02:17:26;2.00;;;1.55;;
21297;SDS011;10808;48.010;11.326;2022-08-21T02:19:53;1.67;;;1.42;;
21297;SDS011;10808;48.010;11.326;2022-08-21T02:22:19;1.58;;;1.48;;
21297;SDS011;10808;48.010;11.326;2022-08-21T02:24:46;1.95;;;1.65;;
21297;SDS011;10808;48.010;11.326;2022-08-21T02:27:12;1.60;;;1.50;;
21297;SDS011;10808;48.010;11.326;2022-08-21T02:29:38;1.80;;;1.55;;
21297;SDS011;10808;48.010;11.326;2022-08-21T02:32:04;1.90;;;1.50;;
21297;SDS011;10808;48.010;11.326;2022-08-21T02:34:30;2.40;;;1.63;;
21297;SDS011;10808;48.010;11.326;2022-08-21T02:36:57;2.38;;;1.50;;
21297;SDS011;10808;48.010;11.326;2022-08-21T02:39:23;2.60;;;1.92;;
21297;SDS011;10808;48.010;11.326;2022-08-21T02:41:49;1.75;;;1.65;;
21297;SDS011;10808;48.010;11.326;2022-08-21T02:44:15;1.98;;;1.52;;
21297;SDS011;10808;48.010;11.326;2022-08-21T02:46:41;1.60;;;1.50;;
21297;SDS011;10808;48.010;11.326;2022-08-21T02:49:08;1.50;;;1.40;;
21297;SDS011;10808;48.010;11.326;2022-08-21T02:51:34;2.22;;;1.70;;
21297;SDS011;10808;48.010;11.326;2022-08-21T02:54:00;3.22;;;1.60;;
21297;SDS011;10808;48.010;11.326;2022-08-21T02:56:26;2.00;;;1.60;;
21297;SDS011;10808;48.010;11.326;2022-08-21T02:58:52;1.80;;;1.60;;
21297;SDS011;10808;48.010;11.326;2022-08-21T03:01:18;3.10;;;1.70;;
21297;SDS011;10808;48.010;11.326;2022-08-21T03:03:46;2.25;;;1.60;;
21297;SDS011;10808;48.010;11.326;2022-08-21T03:06:15;4.95;;;1.80;;
21297;SDS011;10808;48.010;11.326;2022-08-21T03:08:43;4.00;;;1.73;;
21297;SDS011;10808;48.010;11.326;2022-08-21T03:11:10;1.90;;;1.60;;
21297;SDS011;10808;48.010;11.326;2022-08-21T03:13:38;4.80;;;1.77;;
21297;SDS011;10808;48.010;11.326;2022-08-21T03:16:05;2.58;;;1.70;;
21297;SDS011;10808;48.010;11.326;2022-08-21T03:18:31;2.75;;;1.77;;
21297;SDS011;10808;48.010;11.326;2022-08-21T03:20:57;1.75;;;1.58;;
21297;SDS011;10808;48.010;11.326;2022-08-21T03:23:24;2.92;;;1.70;;
21297;SDS011;10808;48.010;11.326;2022-08-21T03:25:50;2.35;;;1.50;;
21297;SDS011;10808;48.010;11.326;2022-08-21T03:28:18;2.15;;;1.60;;
21297;SDS011;10808;48.010;11.326;2022-08-21T03:30:47;2.15;;;1.48;;
21297;SDS011;10808;48.010;11.326;2022-08-21T03:33:15;1.70;;;1.50;;
21297;SDS011;10808;48.010;11.326;2022-08-21T03:35:43;3.78;;;1.60;;
21297;SDS011;10808;48.010;11.326;2022-08-21T03:38:11;1.60;;;1.50;;
21297;SDS011;10808;48.010;11.326;2022-08-21T03:40:38;1.80;;;1.70;;
21297;SDS011;10808;48.010;11.326;2022-08-21T03:43:04;2.28;;;1.60;;
21297;SDS011;10808;48.010;11.326;2022-08-21T03:45:34;1.85;;;1.48;;
21297;SDS011;10808;48.010;11.326;2022-08-21T03:48:01;2.45;;;1.70;;
21297;SDS011;10808;48.010;11.326;2022-08-21T03:50:30;1.70;;;1.60;;
21297;SDS011;10808;48.010;11.326;2022-08-21T03:52:59;1.70;;;1.60;;
21297;SDS011;10808;48.010;11.326;2022-08-21T03:55:25;2.97;;;1.70;;
21297;SDS011;10808;48.010;11.326;2022-08-21T03:57:51;4.00;;;1.65;;
21297;SDS011;10808;48.010;11.326;2022-08-21T04:00:19;2.60;;;1.70;;
21297;SDS011;10808;48.010;11.326;2022-08-21T04:02:46;1.85;;;1.65;;
21297;SDS011;10808;48.010;11.326;2022-08-21T04:05:13;3.38;;;1.92;;
21297;SDS011;10808;48.010;11.326;2022-08-21T04:07:59;2.75;;;1.70;;
21297;SDS011;10808;48.010;11.326;2022-08-21T04:10:29;1.70;;;1.60;;
21297;SDS011;10808;48.010;11.326;2022-08-21T04:12:57;2.08;;;1.70;;
21297;SDS011;10808;48.010;11.326;2022-08-21T04:15:24;1.85;;;1.75;;
21297;SDS011;10808;48.010;11.326;2022-08-21T04:17:51;3.58;;;1.80;;
21297;SDS011;10808;48.010;11.326;2022-08-21T04:20:18;3.45;;;1.98;;
21297;SDS011;10808;48.010;11.326;2022-08-21T04:22:45;2.03;;;1.83;;
21297;SDS011;10808;48.010;11.326;2022-08-21T04:25:12;1.90;;;1.70;;
21297;SDS011;10808;48.010;11.326;2022-08-21T04:27:40;2.35;;;2.10;;
21297;SDS011;10808;48.010;11.326;2022-08-21T04:30:07;3.63;;;1.73;;
21297;SDS011;10808;48.010;11.326;2022-08-21T04:32:35;3.30;;;1.90;;
21297;SDS011;10808;48.010;11.326;2022-08-21T04:35:04;2.50;;;1.80;;
21297;SDS011;10808;48.010;11.326;2022-08-21T04:37:32;2.15;;;1.80;;
21297;SDS011;10808;48.010;11.326;2022-08-21T04:39:58;2.15;;;1.85;;
21297;SDS011;10808;48.010;11.326;2022-08-21T04:42:25;1.80;;;1.70;;
21297;SDS011;10808;48.010;11.326;2022-08-21T04:44:53;1.98;;;1.75;;
21297;SDS011;10808;48.010;11.326;2022-08-21T04:47:20;2.43;;;1.60;;
21297;SDS011;10808;48.010;11.326;2022-08-21T04:49:47;2.65;;;1.85;;
21297;SDS011;10808;48.010;11.326;2022-08-21T04:52:14;2.90;;;1.70;;
21297;SDS011;10808;48.010;11.326;2022-08-21T04:54:44;3.80;;;1.90;;
21297;SDS011;10808;48.010;11.326;2022-08-21T04:57:12;2.40;;;1.73;;
21297;SDS011;10808;48.010;11.326;2022-08-21T04:59:42;3.25;;;1.92;;
21297;SDS011;10808;48.010;11.326;2022-08-21T05:02:12;2.47;;;1.90;;
21297;SDS011;10808;48.010;11.326;2022-08-21T05:04:42;2.40;;;1.80;;
21297;SDS011;10808;48.010;11.326;2022-08-21T05:07:16;4.88;;;2.08;;
21297;SDS011;10808;48.010;11.326;2022-08-21T05:09:46;3.78;;;2.10;;
21297;SDS011;10808;48.010;11.326;2022-08-21T05:12:12;2.15;;;1.60;;
21297;SDS011;10808;48.010;11.326;2022-08-21T05:14:38;3.42;;;2.25;;
21297;SDS011;10808;48.010;11.326;2022-08-21T05:17:04;2.22;;;2.00;;
21297;SDS011;10808;48.010;11.326;2022-08-21T05:19:30;2.80;;;1.90;;
21297;SDS011;10808;48.010;11.326;2022-08-21T05:21:56;2.15;;;1.80;;
21297;SDS011;10808;48.010;11.326;2022-08-21T05:24:23;2.55;;;2.08;;
21297;SDS011;10808;48.010;11.326;2022-08-21T05:26:49;2.90;;;1.80;;
21297;SDS011;10808;48.010;11.326;2022-08-21T05:29:16;1.70;;;1.60;;
21297;SDS011;10808;48.010;11.326;2022-08-21T05:31:42;2.70;;;1.90;;
21297;SDS011;10808;48.010;11.326;2022-08-21T05:34:10;2.40;;;1.75;;
21297;SDS011;10808;48.010;11.326;2022-08-21T05:36:36;3.47;;;2.00;;
21297;SDS011;10808;48.010;11.326;2022-08-21T05:39:02;3.20;;;2.15;;
21297;SDS011;10808;48.010;11.326;2022-08-21T05:41:29;4.20;;;2.00;;
21297;SDS011;10808;48.010;11.326;2022-08-21T05:43:55;3.17;;;1.90;;
21297;SDS011;10808;48.010;11.326;2022-08-21T05:46:21;2.00;;;1.80;;
21297;SDS011;10808;48.010;11.326;2022-08-21T05:48:47;2.38;;;1.90;;
21297;SDS011;10808;48.010;11.326;2022-08-21T05:51:14;3.55;;;1.92;;
21297;SDS011;10808;48.010;11.326;2022-08-21T05:53:41;2.97;;;1.98;;
21297;SDS011;10808;48.010;11.326;2022-08-21T05:56:08;3.45;;;1.77;;
21297;SDS011;10808;48.010;11.326;2022-08-21T05:58:35;5.30;;;2.03;;
21297;SDS011;10808;48.010;11.326;2022-08-21T06:01:01;3.03;;;1.90;;
21297;SDS011;10808;48.010;11.326;2022-08-21T06:03:30;2.40;;;1.75;;
21297;SDS011;10808;48.010;11.326;2022-08-21T06:05:59;3.53;;;1.83;;
21297;SDS011;10808;48.010;11.326;2022-08-21T06:08:26;2.80;;;1.90;;
21297;SDS011;10808;48.010;11.326;2022-08-21T06:10:54;2.50;;;1.85;;
21297;SDS011;10808;48.010;11.326;2022-08-21T06:13:21;3.92;;;1.80;;
21297;SDS011;10808;48.010;11.326;2022-08-21T06:15:49;3.57;;;1.90;;
21297;SDS011;10808;48.010;11.326;2022-08-21T06:18:26;2.28;;;1.83;;
21297;SDS011;10808;48.010;11.326;2022-08-21T06:20:52;2.53;;;1.83;;
21297;SDS011;10808;48.010;11.326;2022-08-21T06:23:18;2.75;;;1.60;;
21297;SDS011;10808;48.010;11.326;2022-08-21T06:25:44;2.55;;;1.90;;
21297;SDS011;10808;48.010;11.326;2022-08-21T06:28:12;2.80;;;1.80;;
21297;SDS011;10808;48.010;11.326;2022-08-21T06:30:39;3.63;;;1.80;;
21297;SDS011;10808;48.010;11.326;2022-08-21T06:33:05;3.47;;;2.13;;
21297;SDS011;10808;48.010;11.326;2022-08-21T06:35:32;3.10;;;2.00;;
21297;SDS011;10808;48.010;11.326;2022-08-21T06:38:00;3.10;;;1.90;;
21297;SDS011;10808;48.010;11.326;2022-08-21T06:40:27;5.05;;;2.00;;
21297;SDS011;10808;48.010;11.326;2022-08-21T06:42:54;3.97;;;2.00;;
21297;SDS011;10808;48.010;11.326;2022-08-21T06:45:20;3.60;;;1.85;;
21297;SDS011;10808;48.010;11.326;2022-08-21T06:47:47;3.43;;;1.97;;
21297;SDS011;10808;48.010;11.326;2022-08-21T06:50:13;3.70;;;1.93;;
21297;SDS011;10808;48.010;11.326;2022-08-21T06:52:39;4.25;;;1.83;;
21297;SDS011;10808;48.010;11.326;2022-08-21T06:55:06;4.22;;;2.10;;
21297;SDS011;10808;48.010;11.326;2022-08-21T06:57:34;2.17;;;1.80;;
21297;SDS011;10808;48.010;11.326;2022-08-21T07:00:01;3.28;;;1.88;;
21297;SDS011;10808;48.010;11.326;2022-08-21T07:02:30;3.28;;;1.90;;
21297;SDS011;10808;48.010;11.326;2022-08-21T07:04:56;3.05;;;2.00;;
21297;SDS011;10808;48.010;11.326;2022-08-21T07:07:23;3.33;;;1.90;;
21297;SDS011;10808;48.010;11.326;2022-08-21T07:09:49;3.47;;;2.00;;
21297;SDS011;10808;48.010;11.326;2022-08-21T07:12:16;3.67;;;1.90;;
21297;SDS011;10808;48.010;11.326;2022-08-21T07:14:42;3.95;;;2.00;;
21297;SDS011;10808;48.010;11.326;2022-08-21T07:17:08;3.95;;;1.80;;
21297;SDS011;10808;48.010;11.326;2022-08-21T07:19:34;3.47;;;2.20;;
21297;SDS011;10808;48.010;11.326;2022-08-21T07:22:01;2.90;;;1.80;;
21297;SDS011;10808;48.010;11.326;2022-08-21T07:24:27;2.20;;;1.63;;
21297;SDS011;10808;48.010;11.326;2022-08-21T07:26:54;2.63;;;1.80;;
21297;SDS011;10808;48.010;11.326;2022-08-21T07:29:21;5.43;;;1.92;;
21297;SDS011;10808;48.010;11.326;2022-08-21T07:31:47;3.92;;;2.00;;
21297;SDS011;10808;48.010;11.326;2022-08-21T07:34:13;2.93;;;1.90;;
21297;SDS011;10808;48.010;11.326;2022-08-21T07:36:39;3.17;;;1.90;;
21297;SDS011;10808;48.010;11.326;2022-08-21T07:39:06;4.65;;;1.95;;
21297;SDS011;10808;48.010;11.326;2022-08-21T07:41:33;4.60;;;1.90;;
21297;SDS011;10808;48.010;11.326;2022-08-21T07:44:00;3.75;;;1.92;;
21297;SDS011;10808;48.010;11.326;2022-08-21T07:46:26;4.20;;;1.70;;
21297;SDS011;10808;48.010;11.326;2022-08-21T07:48:53;2.90;;;2.30;;
21297;SDS011;10808;48.010;11.326;2022-08-21T07:51:20;5.55;;;2.00;;
21297;SDS011;10808;48.010;11.326;2022-08-21T07:53:50;3.22;;;2.00;;
21297;SDS011;10808;48.010;11.326;2022-08-21T07:56:18;5.13;;;2.17;;
21297;SDS011;10808;48.010;11.326;2022-08-21T07:58:44;3.67;;;2.10;;
21297;SDS011;10808;48.010;11.326;2022-08-21T08:01:10;4.10;;;2.10;;
21297;SDS011;10808;48.010;11.326;2022-08-21T08:03:37;3.88;;;2.10;;
21297;SDS011;10808;48.010;11.326;2022-08-21T08:06:04;4.00;;;2.20;;
21297;SDS011;10808;48.010;11.326;2022-08-21T08:08:31;3.22;;;1.92;;
21297;SDS011;10808;48.010;11.326;2022-08-21T08:10:58;4.65;;;2.00;;
21297;SDS011;10808;48.010;11.326;2022-08-21T08:13:25;3.65;;;1.95;;
21297;SDS011;10808;48.010;11.326;2022-08-21T08:15:51;3.85;;;2.08;;
21297;SDS011;10808;48.010;11.326;2022-08-21T08:18:17;3.45;;;1.92;;
21297;SDS011;10808;48.010;11.326;2022-08-21T08:20:43;3.85;;;2.20;;
21297;SDS011;10808;48.010;11.326;2022-08-21T08:23:10;2.95;;;2.10;;
21297;SDS011;10808;48.010;11.326;2022-08-21T08:25:37;4.13;;;2.15;;
21297;SDS011;10808;48.010;11.326;2022-08-21T08:28:04;3.00;;;1.80;;
21297;SDS011;10808;48.010;11.326;2022-08-21T08:30:33;4.20;;;1.90;;
21297;SDS011;10808;48.010;11.326;2022-08-21T08:32:59;4.63;;;2.05;;
21297;SDS011;10808;48.010;11.326;2022-08-21T08:35:25;2.67;;;1.97;;
21297;SDS011;10808;48.010;11.326;2022-08-21T08:37:52;4.32;;;1.80;;
21297;SDS011;10808;48.010;11.326;2022-08-21T08:40:28;7.57;;;2.03;;
21297;SDS011;10808;48.010;11.326;2022-08-21T08:43:01;5.43;;;2.10;;
21297;SDS011;10808;48.010;11.326;2022-08-21T08:45:27;3.60;;;2.00;;
21297;SDS011;10808;48.010;11.326;2022-08-21T08:48:01;4.72;;;2.10;;
21297;SDS011;10808;48.010;11.326;2022-08-21T08:50:41;2.17;;;1.80;;
21297;SDS011;10808;48.010;11.326;2022-08-21T08:53:22;3.80;;;2.00;;
21297;SDS011;10808;48.010;11.326;2022-08-21T08:55:54;7.13;;;2.22;;
21297;SDS011;10808;48.010;11.326;2022-08-21T08:58:37;13.75;;;2.80;;
21297;SDS011;10808;48.010;11.326;2022-08-21T09:01:12;5.88;;;2.40;;
21297;SDS011;10808;48.010;11.326;2022-08-21T09:03:44;6.45;;;2.10;;
21297;SDS011;10808;48.010;11.326;2022-08-21T09:08:53;4.65;;;2.45;;
21297;SDS011;10808;48.010;11.326;2022-08-21T09:20:14;4.47;;;2.80;;
21297;SDS011;10808;48.010;11.326;2022-08-21T09:25:32;4.93;;;3.10;;
21297;SDS011;10808;48.010;11.326;2022-08-21T09:28:11;4.07;;;2.80;;
21297;SDS011;10808;48.010;11.326;2022-08-21T09:30:40;4.03;;;2.95;;
21297;SDS011;10808;48.010;11.326;2022-08-21T09:33:08;3.20;;;2.90;;
21297;SDS011;10808;48.010;11.326;2022-08-21T09:35:48;3.78;;;2.95;;
21297;SDS011;10808;48.010;11.326;2022-08-21T09:41:02;3.17;;;2.67;;
21297;SDS011;10808;48.010;11.326;2022-08-21T09:43:30;3.88;;;2.95;;
21297;SDS011;10808;48.010;11.326;2022-08-21T09:46:19;2.85;;;2.47;;
21297;SDS011;10808;48.010;11.326;2022-08-21T09:48:48;4.20;;;2.90;;
21297;SDS011;10808;48.010;11.326;2022-08-21T09:51:37;7.13;;;3.42;;
21297;SDS011;10808;48.010;11.326;2022-08-21T09:56:33;4.28;;;3.20;;
21297;SDS011;10808;48.010;11.326;2022-08-21T09:59:19;3.63;;;3.33;;
21297;SDS011;10808;48.010;11.326;2022-08-21T10:01:56;4.00;;;3.00;;
21297;SDS011;10808;48.010;11.326;2022-08-21T10:04:28;6.70;;;3.27;;
21297;SDS011;10808;48.010;11.326;2022-08-21T10:07:08;6.38;;;3.00;;
21297;SDS011;10808;48.010;11.326;2022-08-21T10:09:35;4.60;;;2.90;;
21297;SDS011;10808;48.010;11.326;2022-08-21T10:12:20;8.27;;;6.53;;
21297;SDS011;10808;48.010;11.326;2022-08-21T10:20:10;4.15;;;3.03;;
21297;SDS011;10808;48.010;11.326;2022-08-21T10:26:05;3.60;;;3.30;;
21297;SDS011;10808;48.010;11.326;2022-08-21T10:28:54;3.28;;;2.67;;
21297;SDS011;10808;48.010;11.326;2022-08-21T10:31:32;3.20;;;2.60;;
21297;SDS011;10808;48.010;11.326;2022-08-21T10:34:36;2.90;;;2.70;;
21297;SDS011;10808;48.010;11.326;2022-08-21T10:37:23;2.90;;;2.60;;
21297;SDS011;10808;48.010;11.326;2022-08-21T10:40:30;3.00;;;2.70;;
21297;SDS011;10808;48.010;11.326;2022-08-21T10:48:36;2.35;;;2.15;;
21297;SDS011;10808;48.010;11.326;2022-08-21T10:56:43;3.22;;;2.40;;
21297;SDS011;10808;48.010;11.326;2022-08-21T11:01:53;3.00;;;2.70;;
21297;SDS011;10808;48.010;11.326;2022-08-21T11:04:48;6.10;;;3.03;;
21297;SDS011;10808;48.010;11.326;2022-08-21T11:09:54;2.92;;;2.67;;
21297;SDS011;10808;48.010;11.326;2022-08-21T11:12:24;2.97;;;2.67;;
21297;SDS011;10808;48.010;11.326;2022-08-21T11:17:39;3.35;;;2.38;;
21297;SDS011;10808;48.010;11.326;2022-08-21T11:20:20;3.72;;;2.67;;
21297;SDS011;10808;48.010;11.326;2022-08-21T11:25:46;2.83;;;2.28;;
21297;SDS011;10808;48.010;11.326;2022-08-21T11:28:26;4.85;;;2.15;;
21297;SDS011;10808;48.010;11.326;2022-08-21T11:42:43;6.13;;;2.30;;
21297;SDS011;10808;48.010;11.326;2022-08-21T11:50:58;4.20;;;2.30;;
21297;SDS011;10808;48.010;11.326;2022-08-21T11:53:28;3.15;;;2.10;;
21297;SDS011;10808;48.010;11.326;2022-08-21T11:56:03;2.90;;;2.10;;
21297;SDS011;10808;48.010;11.326;2022-08-21T11:58:38;2.05;;;1.95;;
21297;SDS011;10808;48.010;11.326;2022-08-21T12:03:42;2.30;;;2.10;;
21297;SDS011;10808;48.010;11.326;2022-08-21T12:06:27;3.35;;;2.03;;
21297;SDS011;10808;48.010;11.326;2022-08-21T12:09:02;7.28;;;2.30;;
21297;SDS011;10808;48.010;11.326;2022-08-21T12:11:31;3.97;;;2.10;;
21297;SDS011;10808;48.010;11.326;2022-08-21T12:16:38;4.03;;;2.10;;
21297;SDS011;10808;48.010;11.326;2022-08-21T12:26:54;2.10;;;2.00;;
21297;SDS011;10808;48.010;11.326;2022-08-21T12:29:27;2.50;;;2.08;;
21297;SDS011;10808;48.010;11.326;2022-08-21T12:31:57;4.00;;;2.20;;
21297;SDS011;10808;48.010;11.326;2022-08-21T12:34:50;3.45;;;2.30;;
21297;SDS011;10808;48.010;11.326;2022-08-21T12:37:29;3.35;;;2.30;;
21297;SDS011;10808;48.010;11.326;2022-08-21T12:40:40;2.95;;;2.08;;
21297;SDS011;10808;48.010;11.326;2022-08-21T12:43:41;2.75;;;2.10;;
21297;SDS011;10808;48.010;11.326;2022-08-21T12:46:34;4.00;;;2.30;;
21297;SDS011;10808;48.010;11.326;2022-08-21T12:52:20;3.58;;;2.28;;
21297;SDS011;10808;48.010;11.326;2022-08-21T12:54:59;2.60;;;2.20;;
21297;SDS011;10808;48.010;11.326;2022-08-21T12:57:27;2.43;;;2.23;;
21297;SDS011;10808;48.010;11.326;2022-08-21T12:59:58;3.08;;;2.20;;
21297;SDS011;10808;48.010;11.326;2022-08-21T13:02:31;3.03;;;2.03;;
21297;SDS011;10808;48.010;11.326;2022-08-21T13:05:04;2.30;;;2.10;;
21297;SDS011;10808;48.010;11.326;2022-08-21T13:07:35;3.70;;;2.10;;
21297;SDS011;10808;48.010;11.326;2022-08-21T13:10:05;2.47;;;2.28;;
21297;SDS011;10808;48.010;11.326;2022-08-21T13:12:40;3.17;;;2.40;;
21297;SDS011;10808;48.010;11.326;2022-08-21T13:15:07;3.63;;;2.47;;
21297;SDS011;10808;48.010;11.326;2022-08-21T13:17:36;5.43;;;2.58;;
21297;SDS011;10808;48.010;11.326;2022-08-21T13:20:08;3.63;;;2.10;;
21297;SDS011;10808;48.010;11.326;2022-08-21T13:22:44;3.60;;;2.20;;
21297;SDS011;10808;48.010;11.326;2022-08-21T13:25:12;2.83;;;2.50;;
21297;SDS011;10808;48.010;11.326;2022-08-21T13:27:42;4.05;;;2.42;;
21297;SDS011;10808;48.010;11.326;2022-08-21T13:30:22;2.80;;;2.30;;
21297;SDS011;10808;48.010;11.326;2022-08-21T13:32:59;2.35;;;2.15;;
21297;SDS011;10808;48.010;11.326;2022-08-21T13:35:34;5.03;;;2.10;;
21297;SDS011;10808;48.010;11.326;2022-08-21T13:38:11;3.40;;;2.40;;
21297;SDS011;10808;48.010;11.326;2022-08-21T13:40:51;2.83;;;2.40;;
21297;SDS011;10808;48.010;11.326;2022-08-21T13:43:22;3.55;;;2.22;;
21297;SDS011;10808;48.010;11.326;2022-08-21T13:45:54;3.15;;;2.30;;
21297;SDS011;10808;48.010;11.326;2022-08-21T13:48:22;3.47;;;2.70;;
21297;SDS011;10808;48.010;11.326;2022-08-21T13:50:53;3.13;;;2.25;;
21297;SDS011;10808;48.010;11.326;2022-08-21T13:53:30;3.90;;;2.33;;
21297;SDS011;10808;48.010;11.326;2022-08-21T13:56:28;4.10;;;2.35;;
21297;SDS011;10808;48.010;11.326;2022-08-21T13:58:59;5.50;;;2.10;;
21297;SDS011;10808;48.010;11.326;2022-08-21T14:01:28;2.35;;;2.15;;
21297;SDS011;10808;48.010;11.326;2022-08-21T14:04:00;2.97;;;2.22;;
21297;SDS011;10808;48.010;11.326;2022-08-21T14:06:42;2.58;;;2.10;;
21297;SDS011;10808;48.010;11.326;2022-08-21T14:09:10;2.42;;;2.20;;
21297;SDS011;10808;48.010;11.326;2022-08-21T14:11:45;4.05;;;2.33;;
21297;SDS011;10808;48.010;11.326;2022-08-21T14:17:12;3.22;;;2.03;;
21297;SDS011;10808;48.010;11.326;2022-08-21T14:19:50;2.33;;;2.13;;
21297;SDS011;10808;48.010;11.326;2022-08-21T14:27:34;2.50;;;2.13;;
21297;SDS011;10808;48.010;11.326;2022-08-21T14:30:09;2.47;;;2.28;;
21297;SDS011;10808;48.010;11.326;2022-08-21T14:32:47;3.10;;;1.92;;
21297;SDS011;10808;48.010;11.326;2022-08-21T14:35:13;2.47;;;2.10;;
21297;SDS011;10808;48.010;11.326;2022-08-21T14:37:43;2.53;;;2.20;;
21297;SDS011;10808;48.010;11.326;2022-08-21T14:40:11;2.55;;;2.35;;
21297;SDS011;10808;48.010;11.326;2022-08-21T14:42:40;2.97;;;2.30;;
21297;SDS011;10808;48.010;11.326;2022-08-21T14:45:14;2.92;;;2.33;;
21297;SDS011;10808;48.010;11.326;2022-08-21T14:47:47;4.95;;;2.47;;
21297;SDS011;10808;48.010;11.326;2022-08-21T14:50:13;3.10;;;2.50;;
21297;SDS011;10808;48.010;11.326;2022-08-21T14:52:40;3.65;;;2.38;;
21297;SDS011;10808;48.010;11.326;2022-08-21T14:55:07;3.57;;;2.43;;
21297;SDS011;10808;48.010;11.326;2022-08-21T14:57:39;2.35;;;2.08;;
21297;SDS011;10808;48.010;11.326;2022-08-21T15:00:09;2.72;;;2.20;;
21297;SDS011;10808;48.010;11.326;2022-08-21T15:02:38;4.88;;;2.20;;
21297;SDS011;10808;48.010;11.326;2022-08-21T15:05:05;2.88;;;2.30;;
21297;SDS011;10808;48.010;11.326;2022-08-21T15:07:32;2.60;;;2.30;;
21297;SDS011;10808;48.010;11.326;2022-08-21T15:09:58;4.70;;;2.40;;
21297;SDS011;10808;48.010;11.326;2022-08-21T15:12:24;2.92;;;2.60;;
21297;SDS011;10808;48.010;11.326;2022-08-21T15:14:52;3.03;;;2.28;;
21297;SDS011;10808;48.010;11.326;2022-08-21T15:17:19;2.58;;;2.38;;
21297;SDS011;10808;48.010;11.326;2022-08-21T15:19:45;2.88;;;2.30;;
21297;SDS011;10808;48.010;11.326;2022-08-21T15:22:12;3.90;;;2.50;;
21297;SDS011;10808;48.010;11.326;2022-08-21T15:24:39;3.75;;;2.40;;
21297;SDS011;10808;48.010;11.326;2022-08-21T15:27:06;4.07;;;2.47;;
21297;SDS011;10808;48.010;11.326;2022-08-21T15:29:34;2.63;;;2.30;;
21297;SDS011;10808;48.010;11.326;2022-08-21T15:32:01;4.13;;;2.50;;
21297;SDS011;10808;48.010;11.326;2022-08-21T15:34:41;3.95;;;2.50;;
21297;SDS011;10808;48.010;11.326;2022-08-21T15:37:08;3.42;;;2.50;;
21297;SDS011;10808;48.010;11.326;2022-08-21T15:39:34;3.07;;;2.40;;
21297;SDS011;10808;48.010;11.326;2022-08-21T15:42:02;3.63;;;2.55;;
21297;SDS011;10808;48.010;11.326;2022-08-21T15:44:29;3.47;;;2.30;;
21297;SDS011;10808;48.010;11.326;2022-08-21T15:46:55;2.60;;;2.30;;
21297;SDS011;10808;48.010;11.326;2022-08-21T15:49:22;3.15;;;2.50;;
21297;SDS011;10808;48.010;11.326;2022-08-21T15:51:48;3.40;;;2.30;;
21297;SDS011;10808;48.010;11.326;2022-08-21T15:54:14;4.15;;;2.45;;
21297;SDS011;10808;48.010;11.326;2022-08-21T15:56:43;3.45;;;2.50;;
21297;SDS011;10808;48.010;11.326;2022-08-21T15:59:18;3.00;;;2.40;;
21297;SDS011;10808;48.010;11.326;2022-08-21T16:01:48;3.25;;;2.35;;
21297;SDS011;10808;48.010;11.326;2022-08-21T16:04:26;3.45;;;2.38;;
21297;SDS011;10808;48.010;11.326;2022-08-21T16:06:54;6.13;;;2.58;;
21297;SDS011;10808;48.010;11.326;2022-08-21T16:09:21;3.13;;;2.60;;
21297;SDS011;10808;48.010;11.326;2022-08-21T16:11:47;2.70;;;2.50;;
21297;SDS011;10808;48.010;11.326;2022-08-21T16:14:15;2.88;;;2.65;;
21297;SDS011;10808;48.010;11.326;2022-08-21T16:16:42;4.55;;;2.70;;
21297;SDS011;10808;48.010;11.326;2022-08-21T16:19:10;3.80;;;2.65;;
21297;SDS011;10808;48.010;11.326;2022-08-21T16:21:37;3.87;;;2.77;;
21297;SDS011;10808;48.010;11.326;2022-08-21T16:24:03;3.80;;;2.80;;